createdAt,value
2023-03-12T00:00:42.558Z,931.65
2023-03-12T00:01:43.095Z,931.62
2023-03-12T00:02:43.784Z,931.65
2023-03-12T00:03:44.187Z,931.65
2023-03-12T00:04:44.993Z,931.64
2023-03-12T00:05:45.772Z,931.62
2023-03-12T00:06:46.216Z,931.61
2023-03-12T00:07:47.146Z,931.63
2023-03-12T00:08:48.200Z,931.63
2023-03-12T00:09:48.838Z,931.6
2023-03-12T00:10:49.331Z,931.62
2023-03-12T00:11:49.537Z,931.64
2023-03-12T00:12:49.763Z,931.67
2023-03-12T00:13:50.250Z,931.68
2023-03-12T00:14:51.181Z,931.72
2023-03-12T00:15:52.070Z,931.71
2023-03-12T00:16:52.324Z,931.71
2023-03-12T00:17:52.526Z,931.66
2023-03-12T00:18:52.871Z,931.67
2023-03-12T00:19:53.804Z,931.68
2023-03-12T00:20:54.431Z,931.7
2023-03-12T00:21:54.699Z,931.64
2023-03-12T00:22:55.070Z,931.66
2023-03-12T00:23:55.262Z,931.67
2023-03-12T00:24:55.805Z,931.63
2023-03-12T00:25:56.547Z,931.67
2023-03-12T00:26:57.490Z,931.67
2023-03-12T00:27:57.679Z,931.7
2023-03-12T00:28:58.576Z,931.7
2023-03-12T00:29:59.524Z,931.71
2023-03-12T00:30:59.811Z,931.7
2023-03-12T00:32:00.224Z,931.73
2023-03-12T00:33:00.801Z,931.76
2023-03-12T00:34:01.291Z,931.77
2023-03-12T00:35:01.672Z,931.78
2023-03-12T00:36:02.601Z,931.79
2023-03-12T00:37:03.544Z,931.81
2023-03-12T00:38:04.529Z,931.82
2023-03-12T00:39:04.749Z,931.84
2023-03-12T00:40:05.245Z,931.79
2023-03-12T00:41:06.177Z,931.8
2023-03-12T00:42:07.117Z,931.78
2023-03-12T00:43:07.750Z,931.78
2023-03-12T00:44:08.671Z,931.82
2023-03-12T00:45:08.887Z,931.79
2023-03-12T00:46:09.991Z,931.82
2023-03-12T00:47:10.923Z,931.84
2023-03-12T00:48:11.852Z,931.76
2023-03-12T00:49:12.786Z,931.76
2023-03-12T00:50:13.092Z,931.76
2023-03-12T00:51:13.671Z,931.84
2023-03-12T00:52:14.596Z,931.78
2023-03-12T00:53:15.544Z,931.76
2023-03-12T00:54:16.445Z,931.69
2023-03-12T00:55:17.341Z,931.72
2023-03-12T00:56:17.434Z,931.71
2023-03-12T00:57:17.650Z,931.69
2023-03-12T00:58:18.278Z,931.67
2023-03-12T00:59:18.489Z,931.73
2023-03-12T01:00:19.404Z,931.7
2023-03-12T01:01:19.771Z,931.72
2023-03-12T01:02:20.265Z,931.71
2023-03-12T01:03:21.199Z,931.7
2023-03-12T01:04:21.623Z,931.75
2023-03-12T01:05:22.181Z,931.71
2023-03-12T01:06:22.831Z,931.73
2023-03-12T01:07:23.858Z,931.74
2023-03-12T01:08:24.793Z,931.73
2023-03-12T01:09:24.999Z,931.73
2023-03-12T01:10:25.928Z,931.76
2023-03-12T01:11:26.837Z,931.78
2023-03-12T01:12:27.495Z,931.78
2023-03-12T01:13:27.983Z,931.78
2023-03-12T01:14:28.621Z,931.83
2023-03-12T01:15:28.829Z,931.81
2023-03-12T01:16:29.195Z,931.82
2023-03-12T01:17:29.794Z,931.83
2023-03-12T01:18:30.164Z,931.86
2023-03-12T01:19:30.803Z,931.87
2023-03-12T01:20:31.042Z,931.86
2023-03-12T01:21:31.722Z,931.85
2023-03-12T01:22:32.644Z,931.89
2023-03-12T01:23:33.602Z,931.91
2023-03-12T01:24:34.096Z,931.9
2023-03-12T01:25:34.766Z,931.88
2023-03-12T01:26:35.079Z,931.83
2023-03-12T01:27:35.579Z,931.83
2023-03-12T01:28:36.481Z,931.81
2023-03-12T01:29:36.687Z,931.88
2023-03-12T01:30:36.893Z,931.92
2023-03-12T01:31:37.264Z,931.89
2023-03-12T01:32:37.775Z,931.87
2023-03-12T01:33:37.927Z,931.88
2023-03-12T01:34:38.145Z,931.9
2023-03-12T01:35:39.225Z,931.94
2023-03-12T01:36:39.951Z,931.93
2023-03-12T01:37:40.151Z,931.92
2023-03-12T01:38:40.807Z,931.92
2023-03-12T01:39:41.733Z,931.94
2023-03-12T01:40:41.940Z,931.9
2023-03-12T01:41:42.148Z,931.93
2023-03-12T01:42:42.384Z,931.94
2023-03-12T01:43:42.579Z,931.94
2023-03-12T01:44:43.514Z,931.93
2023-03-12T01:45:44.490Z,931.93
2023-03-12T01:46:44.609Z,931.95
2023-03-12T01:47:45.136Z,931.96
2023-03-12T01:48:45.380Z,931.98
2023-03-12T01:49:45.603Z,932.01
2023-03-12T01:50:45.868Z,931.97
2023-03-12T01:51:46.456Z,932.01
2023-03-12T01:52:47.537Z,932.04
2023-03-12T01:53:48.166Z,932.02
2023-03-12T01:54:48.651Z,932.02
2023-03-12T01:55:49.569Z,932.02
2023-03-12T01:56:50.332Z,932.06
2023-03-12T01:57:51.255Z,932.02
2023-03-12T01:58:52.162Z,932.05
2023-03-12T01:59:52.368Z,932.03
2023-03-12T02:00:52.924Z,932.04
2023-03-12T02:01:53.421Z,932.03
2023-03-12T02:02:54.331Z,932.04
2023-03-12T02:03:54.913Z,932.05
2023-03-12T02:04:55.499Z,932.06
2023-03-12T02:05:56.423Z,932.02
2023-03-12T02:06:56.875Z,932.04
2023-03-12T02:07:57.105Z,932.02
2023-03-12T02:08:57.298Z,932.02
2023-03-12T02:09:57.498Z,932.02
2023-03-12T02:10:57.708Z,932.03
2023-03-12T02:11:57.929Z,932.05
2023-03-12T02:12:58.877Z,932.04
2023-03-12T02:13:59.093Z,932.03
2023-03-12T02:14:59.729Z,932
2023-03-12T02:16:00.370Z,932.02
2023-03-12T02:17:00.505Z,932.07
2023-03-12T02:18:01.170Z,932.09
2023-03-12T02:19:01.399Z,932.05
2023-03-12T02:20:02.322Z,932.03
2023-03-12T02:21:02.556Z,932.05
2023-03-12T02:22:03.150Z,932.05
2023-03-12T02:23:04.132Z,932.07
2023-03-12T02:24:05.060Z,932.1
2023-03-12T02:25:05.280Z,932.07
2023-03-12T02:26:05.765Z,932.09
2023-03-12T02:27:06.345Z,932.09
2023-03-12T02:28:07.252Z,932.16
2023-03-12T02:29:07.465Z,932.15
2023-03-12T02:30:08.223Z,932.18
2023-03-12T02:31:09.131Z,932.13
2023-03-12T02:32:10.075Z,932.15
2023-03-12T02:33:11.104Z,932.19
2023-03-12T02:34:12.049Z,932.17
2023-03-12T02:35:12.689Z,932.2
2023-03-12T02:36:13.045Z,932.21
2023-03-12T02:37:13.797Z,932.17
2023-03-12T02:38:14.771Z,932.09
2023-03-12T02:39:15.119Z,932.2
2023-03-12T02:40:15.311Z,932.21
2023-03-12T02:41:15.805Z,932.18
2023-03-12T02:42:16.743Z,932.2
2023-03-12T02:43:17.650Z,932.21
2023-03-12T02:44:17.857Z,932.18
2023-03-12T02:45:18.361Z,932.2
2023-03-12T02:46:18.845Z,932.21
2023-03-12T02:47:19.478Z,932.17
2023-03-12T02:48:20.113Z,932.25
2023-03-12T02:49:21.039Z,932.24
2023-03-12T02:50:21.657Z,932.22
2023-03-12T02:51:22.426Z,932.26
2023-03-12T02:52:23.016Z,932.3
2023-03-12T02:53:23.233Z,932.26
2023-03-12T02:54:23.596Z,932.26
2023-03-12T02:55:24.557Z,932.28
2023-03-12T02:56:25.492Z,932.3
2023-03-12T02:57:26.536Z,932.28
2023-03-12T02:58:26.745Z,932.3
2023-03-12T02:59:26.982Z,932.35
2023-03-12T03:00:27.624Z,932.37
2023-03-12T03:01:27.916Z,932.41
2023-03-12T03:02:28.448Z,932.37
2023-03-12T03:03:29.392Z,932.34
2023-03-12T03:04:29.707Z,932.33
2023-03-12T03:05:29.958Z,932.42
2023-03-12T03:06:30.905Z,932.39
2023-03-12T03:07:31.293Z,932.33
2023-03-12T03:08:31.639Z,932.32
2023-03-12T03:09:32.572Z,932.32
2023-03-12T03:10:32.792Z,932.35
2023-03-12T03:11:33.422Z,932.33
2023-03-12T03:12:33.647Z,932.32
2023-03-12T03:13:33.847Z,932.31
2023-03-12T03:14:34.059Z,932.32
2023-03-12T03:15:34.448Z,932.4
2023-03-12T03:16:35.345Z,932.38
2023-03-12T03:17:35.687Z,932.42
2023-03-12T03:18:35.919Z,932.44
2023-03-12T03:19:36.557Z,932.42
2023-03-12T03:20:36.771Z,932.4
2023-03-12T03:21:37.001Z,932.38
2023-03-12T03:22:37.642Z,932.38
2023-03-12T03:23:37.993Z,932.44
2023-03-12T03:24:38.225Z,932.45
2023-03-12T03:25:39.158Z,932.46
2023-03-12T03:26:40.084Z,932.44
2023-03-12T03:27:40.799Z,932.45
2023-03-12T03:29:41.689Z,932.44
2023-03-12T03:30:42.761Z,932.49
2023-03-12T03:31:42.905Z,932.48
2023-03-12T03:32:43.160Z,932.53
2023-03-12T03:33:43.378Z,932.49
2023-03-12T03:34:43.594Z,932.52
2023-03-12T03:35:44.345Z,932.51
2023-03-12T03:36:45.005Z,932.56
2023-03-12T03:37:45.745Z,932.58
2023-03-12T03:38:46.660Z,932.57
2023-03-12T03:39:47.149Z,932.62
2023-03-12T03:40:47.793Z,932.61
2023-03-12T03:41:48.744Z,932.61
2023-03-12T03:42:49.814Z,932.61
2023-03-12T03:43:50.448Z,932.63
2023-03-12T03:44:50.937Z,932.59
2023-03-12T03:45:51.882Z,932.63
2023-03-12T03:46:52.071Z,932.65
2023-03-12T03:47:52.403Z,932.66
2023-03-12T03:48:52.632Z,932.71
2023-03-12T03:49:53.553Z,932.64
2023-03-12T03:50:54.192Z,932.67
2023-03-12T03:51:54.515Z,932.65
2023-03-12T03:52:55.084Z,932.66
2023-03-12T03:53:55.761Z,932.68
2023-03-12T03:54:56.679Z,932.71
2023-03-12T03:55:56.891Z,932.73
2023-03-12T03:56:57.377Z,932.69
2023-03-12T03:57:57.848Z,932.71
2023-03-12T03:58:58.785Z,932.71
2023-03-12T04:00:00.336Z,932.73
2023-03-12T04:00:59.945Z,932.75
2023-03-12T04:02:00.179Z,932.71
2023-03-12T04:03:00.438Z,932.72
2023-03-12T04:04:00.944Z,932.74
2023-03-12T04:05:01.137Z,932.75
2023-03-12T04:06:02.090Z,932.75
2023-03-12T04:07:02.397Z,932.73
2023-03-12T04:08:02.770Z,932.75
2023-03-12T04:09:03.699Z,932.75
2023-03-12T04:10:03.918Z,932.75
2023-03-12T04:11:04.398Z,932.74
2023-03-12T04:12:04.685Z,932.74
2023-03-12T04:13:04.877Z,932.76
2023-03-12T04:14:05.789Z,932.77
2023-03-12T04:15:06.728Z,932.76
2023-03-12T04:16:06.979Z,932.78
2023-03-12T04:17:07.597Z,932.8
2023-03-12T04:18:08.210Z,932.73
2023-03-12T04:19:08.834Z,932.74
2023-03-12T04:20:09.337Z,932.74
2023-03-12T04:21:09.553Z,932.72
2023-03-12T04:22:09.951Z,932.73
2023-03-12T04:23:10.529Z,932.77
2023-03-12T04:24:11.442Z,932.79
2023-03-12T04:25:11.671Z,932.76
2023-03-12T04:26:11.908Z,932.79
2023-03-12T04:27:12.422Z,932.78
2023-03-12T04:28:13.485Z,932.78
2023-03-12T04:29:13.704Z,932.8
2023-03-12T04:30:13.912Z,932.81
2023-03-12T04:31:14.587Z,932.78
2023-03-12T04:32:15.246Z,932.8
2023-03-12T04:33:15.469Z,932.78
2023-03-12T04:34:15.702Z,932.82
2023-03-12T04:35:16.371Z,932.82
2023-03-12T04:36:17.007Z,932.83
2023-03-12T04:37:17.248Z,932.83
2023-03-12T04:38:17.961Z,932.84
2023-03-12T04:39:18.443Z,932.83
2023-03-12T04:40:18.653Z,932.87
2023-03-12T04:41:18.922Z,932.83
2023-03-12T04:42:19.173Z,932.82
2023-03-12T04:43:19.666Z,932.76
2023-03-12T04:44:19.870Z,932.83
2023-03-12T04:45:20.200Z,932.74
2023-03-12T04:46:21.139Z,932.75
2023-03-12T04:47:21.832Z,932.75
2023-03-12T04:48:22.257Z,932.78
2023-03-12T04:49:22.743Z,932.79
2023-03-12T04:50:23.693Z,932.79
2023-03-12T04:51:24.640Z,932.8
2023-03-12T04:52:25.183Z,932.78
2023-03-12T04:53:25.797Z,932.79
2023-03-12T04:54:26.732Z,932.78
2023-03-12T04:55:26.931Z,932.8
2023-03-12T04:56:27.860Z,932.76
2023-03-12T04:57:28.088Z,932.78
2023-03-12T04:58:28.706Z,932.77
2023-03-12T04:59:29.342Z,932.72
2023-03-12T05:00:29.563Z,932.77
2023-03-12T05:01:30.482Z,932.74
2023-03-12T05:02:30.738Z,932.7
2023-03-12T05:03:30.969Z,932.69
2023-03-12T05:04:33.518Z,932.68
2023-03-12T05:05:31.827Z,932.7
2023-03-12T05:06:32.760Z,932.67
2023-03-12T05:07:33.709Z,932.65
2023-03-12T05:08:34.108Z,932.68
2023-03-12T05:09:34.736Z,932.68
2023-03-12T05:10:35.241Z,932.68
2023-03-12T05:11:37.800Z,932.68
2023-03-12T05:12:36.788Z,932.7
2023-03-12T05:13:37.010Z,932.7
2023-03-12T05:14:37.228Z,932.7
2023-03-12T05:15:37.473Z,932.73
2023-03-12T05:16:37.855Z,932.73
2023-03-12T05:17:38.295Z,932.67
2023-03-12T05:18:38.685Z,932.7
2023-03-12T05:19:39.189Z,932.7
2023-03-12T05:20:39.385Z,932.65
2023-03-12T05:21:40.016Z,932.68
2023-03-12T05:22:40.653Z,932.64
2023-03-12T05:23:41.244Z,932.65
2023-03-12T05:24:42.156Z,932.7
2023-03-12T05:25:42.374Z,932.61
2023-03-12T05:26:42.592Z,932.63
2023-03-12T05:27:42.810Z,932.66
2023-03-12T05:28:43.809Z,932.67
2023-03-12T05:29:44.140Z,932.66
2023-03-12T05:30:44.351Z,932.6
2023-03-12T05:31:44.673Z,932.61
2023-03-12T05:32:44.893Z,932.65
2023-03-12T05:33:44.976Z,932.68
2023-03-12T05:34:45.787Z,932.69
2023-03-12T05:35:46.468Z,932.66
2023-03-12T05:36:47.053Z,932.59
2023-03-12T05:37:47.303Z,932.58
2023-03-12T05:38:48.010Z,932.56
2023-03-12T05:39:48.918Z,932.61
2023-03-12T05:40:49.847Z,932.64
2023-03-12T05:41:50.073Z,932.58
2023-03-12T05:42:50.698Z,932.52
2023-03-12T05:43:50.943Z,932.52
2023-03-12T05:44:51.284Z,932.53
2023-03-12T05:45:52.336Z,932.62
2023-03-12T05:46:53.280Z,932.65
2023-03-12T05:47:53.663Z,932.6
2023-03-12T05:48:54.658Z,932.57
2023-03-12T05:49:54.890Z,932.53
2023-03-12T05:50:55.126Z,932.5
2023-03-12T05:51:56.060Z,932.51
2023-03-12T05:52:56.300Z,932.51
2023-03-12T05:53:56.884Z,932.52
2023-03-12T05:54:57.823Z,932.5
2023-03-12T05:55:58.461Z,932.53
2023-03-12T05:56:59.376Z,932.46
2023-03-12T05:57:59.883Z,932.47
2023-03-12T05:59:00.661Z,932.46
2023-03-12T06:00:00.878Z,932.45
2023-03-12T06:01:01.084Z,932.44
2023-03-12T06:02:01.513Z,932.49
2023-03-12T06:03:02.335Z,932.46
2023-03-12T06:04:02.702Z,932.47
2023-03-12T06:05:02.942Z,932.46
2023-03-12T06:06:03.444Z,932.46
2023-03-12T06:07:03.663Z,932.45
2023-03-12T06:08:04.296Z,932.44
2023-03-12T06:09:04.676Z,932.46
2023-03-12T06:10:05.010Z,932.43
2023-03-12T06:11:05.360Z,932.46
2023-03-12T06:12:05.574Z,932.43
2023-03-12T06:13:06.077Z,932.48
2023-03-12T06:14:06.200Z,932.48
2023-03-12T06:15:07.171Z,932.49
2023-03-12T06:16:07.394Z,932.49
2023-03-12T06:17:08.375Z,932.45
2023-03-12T06:18:09.290Z,932.46
2023-03-12T06:19:09.609Z,932.53
2023-03-12T06:20:10.520Z,932.52
2023-03-12T06:21:11.446Z,932.52
2023-03-12T06:22:12.098Z,932.5
2023-03-12T06:23:13.049Z,932.47
2023-03-12T06:24:13.555Z,932.5
2023-03-12T06:25:13.755Z,932.53
2023-03-12T06:26:14.254Z,932.57
2023-03-12T06:27:15.182Z,932.63
2023-03-12T06:28:15.720Z,932.62
2023-03-12T06:29:16.427Z,932.67
2023-03-12T06:30:16.658Z,932.68
2023-03-12T06:31:16.921Z,932.58
2023-03-12T06:32:17.918Z,932.5
2023-03-12T06:33:18.220Z,932.49
2023-03-12T06:34:18.481Z,932.53
2023-03-12T06:35:19.148Z,932.54
2023-03-12T06:36:19.598Z,932.59
2023-03-12T06:37:20.237Z,932.6
2023-03-12T06:38:20.456Z,932.58
2023-03-12T06:39:21.185Z,932.51
2023-03-12T06:40:22.154Z,932.48
2023-03-12T06:41:22.806Z,932.51
2023-03-12T06:42:23.833Z,932.58
2023-03-12T06:43:24.053Z,932.62
2023-03-12T06:44:24.272Z,932.55
2023-03-12T06:45:24.900Z,932.56
2023-03-12T06:46:25.454Z,932.54
2023-03-12T06:47:25.560Z,932.56
2023-03-12T06:48:25.792Z,932.6
2023-03-12T06:49:26.105Z,932.63
2023-03-12T06:50:26.377Z,932.59
2023-03-12T06:51:27.026Z,932.66
2023-03-12T06:52:27.225Z,932.62
2023-03-12T06:53:27.996Z,932.61
2023-03-12T06:54:28.470Z,932.62
2023-03-12T06:55:28.967Z,932.6
2023-03-12T06:56:29.162Z,932.6
2023-03-12T06:57:30.094Z,932.58
2023-03-12T06:58:30.748Z,932.61
2023-03-12T06:59:31.554Z,932.6
2023-03-12T07:00:32.253Z,932.6
2023-03-12T07:01:33.145Z,932.61
2023-03-12T07:02:33.428Z,932.63
2023-03-12T07:03:34.109Z,932.59
2023-03-12T07:04:34.741Z,932.6
2023-03-12T07:05:35.531Z,932.62
2023-03-12T07:06:35.723Z,932.65
2023-03-12T07:07:36.212Z,932.61
2023-03-12T07:08:36.468Z,932.67
2023-03-12T07:09:36.672Z,932.7
2023-03-12T07:10:37.620Z,932.71
2023-03-12T07:11:38.133Z,932.71
2023-03-12T07:12:38.366Z,932.74
2023-03-12T07:13:38.599Z,932.75
2023-03-12T07:14:39.525Z,932.7
2023-03-12T07:15:39.751Z,932.76
2023-03-12T07:16:39.931Z,932.75
2023-03-12T07:17:40.867Z,932.75
2023-03-12T07:18:41.883Z,932.77
2023-03-12T07:19:42.251Z,932.78
2023-03-12T07:20:42.626Z,932.81
2023-03-12T07:21:43.571Z,932.84
2023-03-12T07:22:44.510Z,932.83
2023-03-12T07:23:45.456Z,932.82
2023-03-12T07:24:46.042Z,932.86
2023-03-12T07:25:46.330Z,932.83
2023-03-12T07:26:46.592Z,932.83
2023-03-12T07:27:46.790Z,932.85
2023-03-12T07:28:47.473Z,932.8
2023-03-12T07:29:48.212Z,932.8
2023-03-12T07:30:48.439Z,932.79
2023-03-12T07:31:48.777Z,932.81
2023-03-12T07:32:49.000Z,932.79
2023-03-12T07:33:49.149Z,932.78
2023-03-12T07:34:50.002Z,932.78
2023-03-12T07:35:51.891Z,932.77
2023-03-12T07:36:50.971Z,932.73
2023-03-12T07:37:51.012Z,932.69
2023-03-12T07:38:51.360Z,932.67
2023-03-12T07:39:52.331Z,932.68
2023-03-12T07:40:52.664Z,932.69
2023-03-12T07:41:52.874Z,932.7
2023-03-12T07:42:53.721Z,932.73
2023-03-12T07:43:54.678Z,932.76
2023-03-12T07:44:55.276Z,932.81
2023-03-12T07:45:55.690Z,932.8
2023-03-12T07:46:56.059Z,932.79
2023-03-12T07:47:56.255Z,932.81
2023-03-12T07:48:57.184Z,932.83
2023-03-12T07:49:57.656Z,932.83
2023-03-12T07:50:58.113Z,932.89
2023-03-12T07:51:58.431Z,932.85
2023-03-12T07:52:59.205Z,932.84
2023-03-12T07:54:00.189Z,932.88
2023-03-12T07:55:00.895Z,932.84
2023-03-12T07:56:01.238Z,932.83
2023-03-12T07:57:01.559Z,932.83
2023-03-12T07:58:02.555Z,932.85
2023-03-12T07:59:03.624Z,932.89
2023-03-12T08:00:04.145Z,932.9
2023-03-12T08:01:04.898Z,932.9
2023-03-12T08:02:05.223Z,932.98
2023-03-12T08:03:06.199Z,933
2023-03-12T08:04:06.820Z,933.03
2023-03-12T08:05:07.511Z,933.06
2023-03-12T08:06:08.019Z,933.04
2023-03-12T08:07:09.352Z,933.04
2023-03-12T08:08:09.029Z,933.05
2023-03-12T08:09:09.984Z,933.04
2023-03-12T08:10:10.759Z,933.05
2023-03-12T08:11:11.084Z,933.08
2023-03-12T08:12:11.326Z,933.15
2023-03-12T08:13:12.443Z,933.2
2023-03-12T08:14:13.442Z,933.21
2023-03-12T08:15:13.833Z,933.18
2023-03-12T08:16:14.547Z,933.19
2023-03-12T08:17:14.652Z,933.22
2023-03-12T08:18:15.573Z,933.25
2023-03-12T08:19:15.823Z,933.25
2023-03-12T08:20:16.442Z,933.31
2023-03-12T08:21:16.707Z,933.34
2023-03-12T08:22:17.660Z,933.33
2023-03-12T08:23:17.864Z,933.34
2023-03-12T08:24:18.825Z,933.34
2023-03-12T08:25:19.404Z,933.37
2023-03-12T08:26:19.504Z,933.34
2023-03-12T08:27:19.701Z,933.34
2023-03-12T08:28:20.200Z,933.26
2023-03-12T08:29:20.754Z,933.25
2023-03-12T08:30:21.048Z,933.25
2023-03-12T08:31:22.009Z,933.19
2023-03-12T08:32:22.358Z,933.17
2023-03-12T08:33:22.412Z,933.12
2023-03-12T08:34:22.723Z,933.11
2023-03-12T08:35:23.712Z,933.11
2023-03-12T08:36:24.024Z,933.15
2023-03-12T08:37:24.969Z,933.15
2023-03-12T08:38:25.895Z,933.18
2023-03-12T08:39:26.899Z,933.2
2023-03-12T08:40:27.900Z,933.2
2023-03-12T08:41:28.555Z,933.21
2023-03-12T08:42:28.758Z,933.19
2023-03-12T08:43:29.494Z,933.22
2023-03-12T08:44:29.788Z,933.21
2023-03-12T08:45:30.103Z,933.16
2023-03-12T08:46:31.092Z,933.17
2023-03-12T08:47:31.606Z,933.16
2023-03-12T08:48:32.109Z,933.03
2023-03-12T08:49:32.351Z,933
2023-03-12T08:50:32.962Z,932.95
2023-03-12T08:51:33.176Z,933.01
2023-03-12T08:52:34.102Z,933.1
2023-03-12T08:53:35.039Z,933.14
2023-03-12T08:54:35.326Z,933.16
2023-03-12T08:55:35.930Z,933.17
2023-03-12T08:56:36.064Z,933.14
2023-03-12T08:57:36.895Z,933.1
2023-03-12T08:58:37.005Z,932.99
2023-03-12T08:59:37.724Z,932.94
2023-03-12T09:00:37.936Z,932.98
2023-03-12T09:01:38.448Z,932.93
2023-03-12T09:02:38.706Z,932.96
2023-03-12T09:03:39.209Z,933.06
2023-03-12T09:04:39.733Z,933.06
2023-03-12T09:05:40.682Z,933.04
2023-03-12T09:06:40.902Z,933.05
2023-03-12T09:07:41.121Z,933.05
2023-03-12T09:08:41.359Z,933.1
2023-03-12T09:09:42.340Z,933.1
2023-03-12T09:10:43.237Z,933.15
2023-03-12T09:11:44.176Z,933.09
2023-03-12T09:12:45.222Z,933.14
2023-03-12T09:14:08.415Z,933.2
2023-03-12T09:15:15.457Z,933.19
2023-03-12T09:16:16.106Z,933.16
2023-03-12T09:17:16.608Z,933.19
2023-03-12T09:18:17.547Z,933.09
2023-03-12T09:19:18.036Z,933.12
2023-03-12T09:20:19.015Z,933.14
2023-03-12T09:21:19.431Z,933.18
2023-03-12T09:22:20.352Z,933.16
2023-03-12T09:23:20.914Z,933.23
2023-03-12T09:24:21.420Z,933.24
2023-03-12T09:25:22.402Z,933.26
2023-03-12T09:26:22.975Z,933.24
2023-03-12T09:27:23.901Z,933.26
2023-03-12T09:28:24.095Z,933.22
2023-03-12T09:29:24.315Z,933.19
2023-03-12T09:30:24.477Z,933.19
2023-03-12T09:31:24.741Z,933.29
2023-03-12T09:32:25.836Z,933.32
2023-03-12T09:33:26.706Z,933.37
2023-03-12T09:34:26.931Z,933.42
2023-03-12T09:35:27.439Z,933.48
2023-03-12T09:36:28.225Z,933.5
2023-03-12T09:37:28.713Z,933.53
2023-03-12T09:38:29.634Z,933.5
2023-03-12T09:39:30.598Z,933.53
2023-03-12T09:40:31.307Z,933.45
2023-03-12T09:41:32.141Z,933.5
2023-03-12T09:42:33.072Z,933.5
2023-03-12T09:43:33.913Z,933.47
2023-03-12T09:44:34.851Z,933.46
2023-03-12T09:45:35.798Z,933.49
2023-03-12T09:46:36.831Z,933.57
2023-03-12T09:47:37.756Z,933.61
2023-03-12T09:48:38.282Z,933.56
2023-03-12T09:49:38.843Z,933.58
2023-03-12T09:50:39.485Z,933.68
2023-03-12T09:51:40.277Z,933.65
2023-03-12T09:52:40.915Z,933.6
2023-03-12T09:53:41.150Z,933.67
2023-03-12T09:54:41.665Z,933.62
2023-03-12T09:55:42.003Z,933.57
2023-03-12T09:56:42.611Z,933.66
2023-03-12T09:57:42.842Z,933.72
2023-03-12T09:58:43.069Z,933.63
2023-03-12T09:59:43.448Z,933.59
2023-03-12T10:00:45.289Z,933.64
2023-03-12T10:01:44.558Z,933.77
2023-03-12T10:06:48.697Z,933.56
2023-03-12T10:07:48.045Z,933.69
2023-03-12T10:08:48.780Z,933.71
2023-03-12T10:09:49.758Z,933.71
2023-03-12T10:10:50.528Z,933.7
2023-03-12T10:11:50.949Z,933.7
2023-03-12T10:12:51.909Z,933.75
2023-03-12T10:13:52.826Z,933.66
2023-03-12T10:14:53.054Z,933.66
2023-03-12T10:15:53.722Z,933.67
2023-03-12T10:16:53.922Z,933.68
2023-03-12T10:17:54.843Z,933.69
2023-03-12T10:18:55.216Z,933.66
2023-03-12T10:19:55.326Z,933.72
2023-03-12T10:20:55.566Z,933.7
2023-03-12T10:21:56.644Z,933.64
2023-03-12T10:22:57.382Z,933.72
2023-03-12T10:23:57.912Z,933.68
2023-03-12T10:24:58.114Z,933.67
2023-03-12T10:25:58.350Z,933.63
2023-03-12T10:26:58.939Z,933.63
2023-03-12T10:27:59.943Z,933.69
2023-03-12T10:29:00.175Z,933.78
2023-03-12T10:30:01.234Z,933.74
2023-03-12T10:31:01.951Z,933.81
2023-03-12T10:32:02.165Z,933.76
2023-03-12T10:33:02.805Z,933.75
2023-03-12T10:34:03.309Z,933.81
2023-03-12T10:35:04.247Z,933.83
2023-03-12T10:36:04.688Z,933.88
2023-03-12T10:37:04.800Z,933.86
2023-03-12T10:38:05.844Z,933.9
2023-03-12T10:39:06.765Z,933.87
2023-03-12T10:40:07.694Z,933.89
2023-03-12T10:41:08.177Z,933.93
2023-03-12T10:42:08.916Z,933.9
2023-03-12T10:43:09.590Z,933.88
2023-03-12T10:44:10.232Z,933.94
2023-03-12T10:45:10.464Z,933.96
2023-03-12T10:46:11.460Z,933.94
2023-03-12T10:47:11.675Z,933.96
2023-03-12T10:48:12.218Z,933.95
2023-03-12T10:49:13.160Z,933.95
2023-03-12T10:50:13.819Z,933.98
2023-03-12T10:51:14.029Z,934.01
2023-03-12T10:52:15.027Z,934.02
2023-03-12T10:53:15.963Z,934.07
2023-03-12T10:54:16.805Z,933.98
2023-03-12T10:55:17.067Z,934.01
2023-03-12T10:56:17.310Z,934
2023-03-12T10:57:18.286Z,934.05
2023-03-12T10:58:18.501Z,934
2023-03-12T10:59:18.737Z,933.98
2023-03-12T11:00:19.663Z,934.07
2023-03-12T11:01:20.092Z,934.08
2023-03-12T11:02:21.001Z,934.03
2023-03-12T11:03:22.029Z,934.07
2023-03-12T11:04:22.231Z,934.12
2023-03-12T11:05:23.277Z,934.11
2023-03-12T11:06:24.257Z,934.08
2023-03-12T11:07:24.766Z,934.11
2023-03-12T11:08:25.681Z,934.1
2023-03-12T11:09:26.323Z,934.12
2023-03-12T11:10:26.980Z,934.13
2023-03-12T11:11:27.337Z,934.16
2023-03-12T11:12:27.858Z,934.12
2023-03-12T11:13:28.075Z,934.1
2023-03-12T11:14:29.022Z,934.14
2023-03-12T11:15:29.227Z,934.15
2023-03-12T11:16:32.037Z,934.11
2023-03-12T11:17:29.682Z,934.12
2023-03-12T11:18:30.346Z,934.15
2023-03-12T11:19:30.877Z,934.11
2023-03-12T11:20:31.831Z,934.09
2023-03-12T11:21:32.489Z,934.11
2023-03-12T11:22:33.519Z,934.08
2023-03-12T11:23:33.981Z,934.08
2023-03-12T11:24:34.196Z,934.1
2023-03-12T11:25:35.106Z,933.97
2023-03-12T11:26:36.061Z,934.1
2023-03-12T11:27:36.668Z,934.14
2023-03-12T11:28:37.240Z,934.1
2023-03-12T11:29:38.341Z,934.04
2023-03-12T11:30:38.457Z,934.11
2023-03-12T11:31:38.822Z,934.09
2023-03-12T11:32:39.317Z,934.1
2023-03-12T11:33:40.075Z,934.06
2023-03-12T11:34:40.723Z,934.06
2023-03-12T11:35:41.649Z,934.11
2023-03-12T11:36:42.107Z,934.08
2023-03-12T11:37:43.051Z,934
2023-03-12T11:38:44.033Z,934.01
2023-03-12T11:39:44.982Z,934.04
2023-03-12T11:40:45.640Z,934
2023-03-12T11:41:46.311Z,934.01
2023-03-12T11:42:47.033Z,934.08
2023-03-12T11:43:47.980Z,934.02
2023-03-12T11:44:48.484Z,934.05
2023-03-12T11:45:49.472Z,933.99
2023-03-12T11:46:50.423Z,934
2023-03-12T11:47:50.645Z,934
2023-03-12T11:48:50.953Z,934
2023-03-12T11:49:51.737Z,934.02
2023-03-12T11:50:52.675Z,933.98
2023-03-12T11:51:53.631Z,934.07
2023-03-12T11:52:53.945Z,934.02
2023-03-12T11:53:54.885Z,933.96
2023-03-12T11:54:55.613Z,934.02
2023-03-12T11:55:55.960Z,934.02
2023-03-12T11:56:56.909Z,933.99
2023-03-12T11:57:57.556Z,933.97
2023-03-12T11:58:57.760Z,933.99
2023-03-12T11:59:58.131Z,933.99
2023-03-12T12:00:58.499Z,934.05
2023-03-12T12:01:59.448Z,933.94
2023-03-12T12:03:00.274Z,933.98
2023-03-12T12:04:00.541Z,933.95
2023-03-12T12:05:00.766Z,934.03
2023-03-12T12:06:01.440Z,933.98
2023-03-12T12:07:02.413Z,934
2023-03-12T12:08:03.390Z,933.97
2023-03-12T12:09:03.638Z,934.04
2023-03-12T12:10:03.866Z,934.02
2023-03-12T12:11:04.868Z,933.98
2023-03-12T12:12:05.693Z,933.98
2023-03-12T12:13:05.199Z,934.08
2023-03-12T12:14:06.134Z,934.05
2023-03-12T12:15:06.353Z,934.06
2023-03-12T12:16:06.629Z,934.07
2023-03-12T12:17:07.003Z,934.13
2023-03-12T12:18:07.642Z,934.05
2023-03-12T12:19:08.001Z,934.12
2023-03-12T12:20:08.545Z,933.97
2023-03-12T12:21:09.539Z,933.94
2023-03-12T12:22:10.050Z,933.99
2023-03-12T12:23:10.565Z,933.97
2023-03-12T12:24:11.076Z,934.03
2023-03-12T12:25:11.365Z,933.99
2023-03-12T12:26:11.673Z,934.02
2023-03-12T12:27:12.317Z,934.02
2023-03-12T12:28:13.150Z,934.04
2023-03-12T12:29:13.491Z,934.05
2023-03-12T12:30:14.452Z,934.02
2023-03-12T12:31:15.368Z,934.05
2023-03-12T12:32:15.540Z,934.1
2023-03-12T12:33:16.222Z,934.09
2023-03-12T12:34:17.165Z,934.08
2023-03-12T12:35:17.404Z,933.99
2023-03-12T12:36:18.386Z,934.01
2023-03-12T12:37:18.645Z,934.03
2023-03-12T12:38:19.576Z,934.05
2023-03-12T12:39:20.520Z,933.96
2023-03-12T12:40:21.172Z,934
2023-03-12T12:41:21.522Z,934.03
2023-03-12T12:42:21.796Z,934.03
2023-03-12T12:43:22.549Z,934.01
2023-03-12T12:44:22.794Z,934.02
2023-03-12T12:45:23.706Z,934